Time;durP1;ratioP1;P1;durP2;ratioP2;P2;SDS_P1;SDS_P2;PMS_P1;PMS_P2;Temp;Humidity;BMP_temperature;BMP_pressure;BME280_temperature;BME280_humidity;BME280_pressure;Samples;Min_cycle;Max_cycle;Signal;HPM_P1;HPM_P2
2021/01/23 00:01:22;;;;;;;30.73;16.73;;;;;;;6.24;84.75;98897.31;4995614;28;20037;-73
2021/01/23 00:03:48;;;;;;;27.38;15.57;;;;;;;6.07;84.68;98881.66;4995100;28;20084;-72
2021/01/23 00:06:13;;;;;;;28.65;15.63;;;;;;;5.87;84.87;98845.81;4995868;28;20103;-71
2021/01/23 00:08:39;;;;;;;29.73;15.65;;;;;;;5.84;85.08;98855.75;4995153;28;20029;-73
2021/01/23 00:11:04;;;;;;;25.27;14.48;;;;;;;5.78;84.95;98833.16;5013001;28;20034;-72
2021/01/23 00:13:30;;;;;;;27.92;15.70;;;;;;;6.06;84.86;98890.53;4995741;28;20034;-72
2021/01/23 00:15:56;;;;;;;28.77;14.73;;;;;;;6.03;84.88;98882.81;4995466;28;20045;-72
2021/01/23 00:18:22;;;;;;;28.95;16.10;;;;;;;5.70;84.82;98831.03;5012944;28;20061;-72
2021/01/23 00:20:47;;;;;;;24.83;14.10;;;;;;;5.77;84.32;98822.69;5012654;28;20045;-72
2021/01/23 00:23:13;;;;;;;26.50;14.25;;;;;;;6.08;84.33;98870.13;4995502;28;20033;-72
2021/01/23 00:25:38;;;;;;;25.65;14.10;;;;;;;6.23;84.20;98889.47;4994968;28;20038;-73
2021/01/23 00:28:04;;;;;;;24.73;14.25;;;;;;;6.27;83.93;98881.25;4995566;28;20141;-72
2021/01/23 00:30:30;;;;;;;27.63;14.23;;;;;;;6.25;84.06;98880.47;4995523;28;20490;-72
2021/01/23 00:32:55;;;;;;;23.08;13.65;;;;;;;6.27;84.05;98864.47;5012643;28;20049;-72
2021/01/23 00:35:21;;;;;;;20.90;11.88;;;;;;;6.42;83.81;98881.19;4995350;28;20030;-71
2021/01/23 00:37:48;;;;;;;21.02;11.75;;;;;;;6.57;82.81;98880.22;4994758;28;20062;-73
2021/01/23 00:40:14;;;;;;;23.13;12.20;;;;;;;6.59;82.56;98870.34;5012755;28;20111;-72
2021/01/23 00:42:39;;;;;;;19.83;11.65;;;;;;;6.63;82.50;98866.53;4995152;28;20038;-74
2021/01/23 00:45:05;;;;;;;21.73;12.48;;;;;;;6.34;81.93;98819.94;5013174;28;20104;-71
2021/01/23 00:47:31;;;;;;;24.13;12.68;;;;;;;6.39;81.92;98829.28;4995340;28;20064;-72
2021/01/23 00:49:56;;;;;;;20.80;11.35;;;;;;;6.76;81.82;98871.91;4994984;28;20451;-71
2021/01/23 00:52:22;;;;;;;22.02;12.07;;;;;;;6.78;81.27;98872.63;4995137;28;20034;-74
2021/01/23 00:54:47;;;;;;;18.55;10.35;;;;;;;6.86;80.48;98883.59;5012346;28;20490;-72
2021/01/23 00:57:13;;;;;;;18.00;10.60;;;;;;;6.86;81.03;98880.94;4979061;28;20038;-71
2021/01/23 00:59:38;;;;;;;18.52;10.70;;;;;;;6.90;80.53;98869.16;4995903;28;20037;-71
2021/01/23 01:02:04;;;;;;;20.42;10.80;;;;;;;6.91;80.79;98870.00;4982439;28;20061;-70
2021/01/23 01:04:29;;;;;;;21.35;10.30;;;;;;;6.91;79.89;98854.09;5016075;28;20398;-70
2021/01/23 01:06:55;;;;;;;19.25;10.38;;;;;;;6.78;80.06;98844.34;4965995;28;20034;-70
2021/01/23 01:09:20;;;;;;;20.70;10.65;;;;;;;6.93;80.62;98849.53;5015982;28;20437;-70
2021/01/23 01:11:46;;;;;;;19.48;10.85;;;;;;;6.97;79.97;98848.41;4998492;28;20057;-71
2021/01/23 01:14:12;;;;;;;20.05;10.27;;;;;;;7.01;79.79;98833.97;5016099;28;20459;-69
2021/01/23 01:16:37;;;;;;;17.50;10.63;;;;;;;6.76;80.18;98798.53;5016378;28;20038;-70
2021/01/23 01:19:03;;;;;;;19.50;10.75;;;;;;;7.08;79.88;98852.03;4998090;28;20407;-70
2021/01/23 01:21:28;;;;;;;18.88;10.35;;;;;;;6.98;79.29;98828.88;4982230;28;20037;-70
2021/01/23 01:23:53;;;;;;;19.60;11.00;;;;;;;7.04;79.71;98844.38;5015425;28;20039;-72
2021/01/23 01:26:19;;;;;;;17.77;10.45;;;;;;;7.05;80.25;98852.25;4998555;28;20060;-71
2021/01/23 01:28:44;;;;;;;20.65;11.05;;;;;;;7.08;79.36;98845.88;4998057;28;20067;-70
2021/01/23 01:31:10;;;;;;;20.00;10.35;;;;;;;7.14;79.35;98843.66;4982124;28;20037;-71
2021/01/23 01:33:35;;;;;;;24.67;10.40;;;;;;;7.22;78.56;98826.34;4998439;28;20073;-70
2021/01/23 01:36:01;;;;;;;18.50;10.23;;;;;;;7.20;78.70;98839.72;5015667;28;20038;-71
2021/01/23 01:38:26;;;;;;;20.92;10.55;;;;;;;7.16;78.69;98838.25;4998091;28;20491;-71
2021/01/23 01:40:52;;;;;;;21.45;11.18;;;;;;;7.03;79.10;98811.69;4997731;28;20041;-71
2021/01/23 01:43:18;;;;;;;18.33;10.00;;;;;;;7.08;79.30;98822.00;4997975;28;20046;-70
2021/01/23 01:45:45;;;;;;;18.75;10.63;;;;;;;7.00;79.80;98819.03;4997838;28;20041;-73
2021/01/23 01:48:11;;;;;;;18.75;10.85;;;;;;;7.16;80.11;98838.25;4997818;28;20030;-71
2021/01/23 01:50:38;;;;;;;18.85;11.27;;;;;;;6.92;80.41;98797.47;5015261;28;20066;-72
2021/01/23 01:53:05;;;;;;;18.83;10.90;;;;;;;6.94;80.00;98811.47;5014943;28;20052;-71
2021/01/23 01:55:33;;;;;;;17.98;10.55;;;;;;;7.14;79.91;98835.69;4997852;28;20084;-71
2021/01/23 01:57:59;;;;;;;17.77;11.00;;;;;;;7.18;80.03;98833.69;5015019;28;20114;-71
2021/01/23 02:00:25;;;;;;;20.55;12.13;;;;;;;7.22;80.43;98836.97;4981485;28;20041;-71
2021/01/23 02:02:56;;;;;;;19.48;10.93;;;;;;;7.04;79.83;98805.44;5014707;28;20053;-70
2021/01/23 02:05:58;;;;;;;21.98;11.30;;;;;;;7.16;79.47;98828.47;5015082;28;20104;-71
2021/01/23 02:08:30;;;;;;;21.23;12.07;;;;;;;6.98;79.58;98807.69;5005667;28;20506;-71
2021/01/23 02:11:20;;;;;;;18.15;11.13;;;;;;;7.09;79.79;98823.69;4996486;28;20153;-72
2021/01/23 02:13:51;;;;;;;19.42;11.27;;;;;;;7.11;79.89;98819.13;4997080;28;20076;-75
2021/01/23 02:16:24;;;;;;;21.85;10.68;;;;;;;7.31;78.77;98815.94;5014880;28;20422;-72
2021/01/23 02:18:59;;;;;;;19.13;10.90;;;;;;;7.26;78.96;98791.56;5014809;28;20026;-73
2021/01/23 02:21:37;;;;;;;21.25;12.13;;;;;;;7.35;78.54;98806.00;5014745;28;20256;-71
2021/01/23 02:24:05;;;;;;;21.70;11.82;;;;;;;7.25;79.04;98789.88;5014679;28;20104;-72
2021/01/23 02:27:06;;;;;;;22.58;11.88;;;;;;;7.10;79.84;98786.47;5014903;28;20033;-71
2021/01/23 02:29:56;;;;;;;18.65;10.82;;;;;;;7.13;79.63;98798.66;5014690;28;20022;-70
2021/01/23 02:32:23;;;;;;;21.67;11.18;;;;;;;7.00;80.03;98787.22;5014785;28;20037;-72
2021/01/23 02:34:49;;;;;;;20.73;11.80;;;;;;;6.60;79.93;98718.38;5014419;28;20030;-71
2021/01/23 02:37:17;;;;;;;23.45;11.68;;;;;;;6.71;80.27;98725.59;5014538;28;20096;-72
2021/01/23 02:39:43;;;;;;;21.52;11.70;;;;;;;6.76;80.67;98755.28;5014363;28;20073;-70
2021/01/23 02:42:09;;;;;;;21.58;11.50;;;;;;;6.81;80.83;98761.13;5014243;28;20037;-73
2021/01/23 02:44:34;;;;;;;21.90;11.73;;;;;;;6.78;81.05;98754.22;4980979;28;20388;-71
2021/01/23 02:47:00;;;;;;;19.30;10.95;;;;;;;6.88;80.76;98750.00;5014013;28;20037;-73
2021/01/23 02:49:26;;;;;;;17.20;10.80;;;;;;;6.85;80.63;98750.22;4996932;28;20030;-70
2021/01/23 02:51:58;;;;;;;18.40;10.82;;;;;;;6.74;81.20;98741.28;5014076;28;20076;-72
2021/01/23 02:54:34;;;;;;;19.10;10.60;;;;;;;6.39;81.36;98690.72;5014532;28;20030;-71
2021/01/23 02:57:02;;;;;;;21.70;11.57;;;;;;;6.68;81.28;98747.88;5014171;28;20152;-72
2021/01/23 02:59:30;;;;;;;20.00;11.45;;;;;;;6.67;80.70;98746.16;4996471;28;20034;-71
2021/01/23 03:01:56;;;;;;;22.25;12.20;;;;;;;6.57;81.05;98745.09;5013689;28;20041;-70
2021/01/23 03:04:23;;;;;;;23.42;12.82;;;;;;;6.58;81.96;98760.03;5014389;28;20392;-70
2021/01/23 03:06:49;;;;;;;19.80;11.93;;;;;;;6.56;82.31;98765.44;4980043;28;20372;-73
2021/01/23 03:09:22;;;;;;;21.10;12.00;;;;;;;6.63;82.06;98768.50;5014111;28;20036;-70
2021/01/23 03:11:48;;;;;;;20.60;11.43;;;;;;;6.66;81.68;98768.31;5014043;28;20022;-71
2021/01/23 03:14:13;;;;;;;19.95;11.48;;;;;;;6.67;81.73;98770.00;5013620;28;20033;-70
2021/01/23 03:16:51;;;;;;;20.70;11.55;;;;;;;6.68;81.86;98753.16;5014024;28;20042;-71
2021/01/23 03:19:17;;;;;;;22.15;11.90;;;;;;;6.72;81.26;98765.25;5013883;28;20467;-70
2021/01/23 03:21:44;;;;;;;20.17;12.18;;;;;;;6.69;81.46;98765.47;5013871;28;20037;-69
2021/01/23 03:24:09;;;;;;;19.25;11.68;;;;;;;6.79;80.82;98742.66;5013210;28;20140;-71
2021/01/23 03:26:35;;;;;;;20.20;11.23;;;;;;;6.97;80.09;98755.63;5013907;28;20121;-70
2021/01/23 03:29:02;;;;;;;19.73;10.68;;;;;;;6.97;79.94;98763.56;4996042;28;20030;-70
2021/01/23 03:31:27;;;;;;;20.08;11.57;;;;;;;7.05;79.69;98754.13;5013610;28;20026;-70
2021/01/23 03:33:53;;;;;;;22.50;11.23;;;;;;;7.00;79.76;98743.00;5013021;28;20037;-74
2021/01/23 03:36:18;;;;;;;19.33;10.48;;;;;;;7.08;80.01;98739.81;5013580;28;20041;-74
2021/01/23 03:38:44;;;;;;;20.15;11.50;;;;;;;6.78;81.22;98722.44;4995825;28;20057;-73
2021/01/23 03:41:09;;;;;;;18.13;11.15;;;;;;;6.75;81.29;98730.56;4995522;28;20085;-73
2021/01/23 03:43:34;;;;;;;23.90;11.57;;;;;;;6.77;81.52;98733.97;4979738;28;20038;-73
2021/01/23 03:46:00;;;;;;;19.08;11.15;;;;;;;6.43;81.61;98677.16;5013226;28;20054;-73
2021/01/23 03:48:25;;;;;;;21.88;10.98;;;;;;;6.43;81.83;98676.28;5013419;28;20467;-71
2021/01/23 03:50:51;;;;;;;21.83;12.38;;;;;;;6.47;81.82;98677.81;5013350;28;20518;-77
2021/01/23 03:53:16;;;;;;;21.40;11.20;;;;;;;6.78;81.89;98727.72;5013231;28;20029;-71
2021/01/23 03:55:42;;;;;;;21.98;12.05;;;;;;;6.71;82.19;98726.44;5013210;28;20037;-71
2021/01/23 03:58:07;;;;;;;20.85;11.75;;;;;;;6.74;82.26;98709.47;4995668;28;20080;-71
2021/01/23 04:00:33;;;;;;;20.25;11.80;;;;;;;6.54;83.28;98706.38;4979879;28;20030;-71
2021/01/23 04:02:58;;;;;;;20.73;11.82;;;;;;;6.43;82.82;98677.16;4995312;28;20038;-71
2021/01/23 04:05:24;;;;;;;22.33;11.85;;;;;;;6.38;83.20;98681.91;4979509;28;20041;-70
2021/01/23 04:07:50;;;;;;;21.23;11.88;;;;;;;6.65;82.64;98704.81;5013062;28;20068;-70
2021/01/23 04:10:16;;;;;;;22.95;13.05;;;;;;;6.66;83.18;98715.34;5013050;28;20033;-72
2021/01/23 04:12:41;;;;;;;20.98;12.48;;;;;;;6.57;83.53;98735.34;5012964;28;20365;-71
2021/01/23 04:15:07;;;;;;;24.50;13.45;;;;;;;6.52;85.11;98728.66;4979027;28;20095;-72
2021/01/23 04:17:32;;;;;;;23.10;13.70;;;;;;;6.37;84.02;98663.47;4995514;28;20045;-70
2021/01/23 04:19:58;;;;;;;24.73;13.93;;;;;;;6.52;84.58;98707.47;4995156;28;20038;-70
2021/01/23 04:22:23;;;;;;;26.52;14.15;;;;;;;6.32;84.71;98683.16;4995808;28;20084;-70
2021/01/23 04:24:49;;;;;;;26.88;13.52;;;;;;;6.39;85.45;98696.84;4995418;28;20057;-70
2021/01/23 04:27:14;;;;;;;23.25;13.70;;;;;;;6.29;86.31;98703.72;5012547;28;20373;-70
2021/01/23 04:29:40;;;;;;;23.30;13.52;;;;;;;6.27;86.85;98718.84;5012964;28;20041;-73
2021/01/23 04:32:06;;;;;;;26.23;14.57;;;;;;;6.20;88.01;98725.53;5012727;28;20523;-72
2021/01/23 04:34:31;;;;;;;26.80;14.90;;;;;;;5.99;87.22;98651.88;5013917;28;20056;-73
2021/01/23 04:36:57;;;;;;;31.90;16.83;;;;;;;6.03;87.75;98684.28;5016541;28;20522;-73
2021/01/23 04:39:23;;;;;;;28.88;15.13;;;;;;;5.93;88.62;98681.38;5016747;28;20037;-73
2021/01/23 04:41:48;;;;;;;26.98;15.15;;;;;;;5.84;88.85;98650.22;5016573;28;20038;-73
2021/01/23 04:44:13;;;;;;;27.13;14.98;;;;;;;5.97;89.09;98672.28;5016272;28;20037;-72
2021/01/23 04:46:39;;;;;;;25.92;15.48;;;;;;;5.83;89.10;98661.75;4999073;28;20038;-70
2021/01/23 04:49:05;;;;;;;29.90;16.88;;;;;;;6.08;89.54;98691.91;5016631;28;20403;-70
2021/01/23 04:51:30;;;;;;;28.98;16.65;;;;;;;6.00;89.70;98692.44;4999199;28;20030;-70
2021/01/23 04:53:56;;;;;;;27.00;16.95;;;;;;;6.06;89.29;98697.28;5016210;28;20386;-77
2021/01/23 04:56:22;;;;;;;26.67;17.02;;;;;;;6.08;88.28;98692.78;5016601;28;20034;-72
2021/01/23 04:58:47;;;;;;;30.95;17.67;;;;;;;6.17;88.33;98684.19;4998875;28;20103;-71
2021/01/23 05:01:13;;;;;;;29.88;17.35;;;;;;;6.12;88.41;98696.06;5016110;28;20037;-73
2021/01/23 05:03:56;;;;;;;31.42;17.38;;;;;;;6.21;89.15;98680.41;5016213;28;20053;-72
2021/01/23 05:06:22;;;;;;;27.10;16.75;;;;;;;6.20;88.25;98673.41;4998509;28;20037;-71
2021/01/23 05:08:47;;;;;;;28.17;17.80;;;;;;;6.06;89.11;98685.88;4982570;28;20045;-71
2021/01/23 05:11:13;;;;;;;27.42;15.63;;;;;;;5.93;90.30;98669.97;5015865;28;20037;-70
2021/01/23 05:13:38;;;;;;;32.80;18.15;;;;;;;5.78;91.45;98673.56;4998721;28;20601;-70
2021/01/23 05:16:26;;;;;;;27.50;16.33;;;;;;;6.01;90.06;98646.47;4981623;28;20038;-70
2021/01/23 05:18:56;;;;;;;28.77;17.73;;;;;;;5.85;90.40;98672.22;5016034;28;20356;-71
2021/01/23 05:21:22;;;;;;;30.13;17.90;;;;;;;5.84;90.95;98676.66;4981849;28;20053;-72
2021/01/23 05:24:03;;;;;;;29.55;16.85;;;;;;;5.84;90.47;98655.50;4998662;28;20398;-72
2021/01/23 05:26:29;;;;;;;34.03;17.67;;;;;;;5.77;89.91;98643.63;4982372;28;20064;-71
2021/01/23 05:29:05;;;;;;;26.85;16.83;;;;;;;5.82;89.64;98656.56;5015683;28;20065;-72
2021/01/23 05:31:30;;;;;;;28.95;17.17;;;;;;;5.80;90.62;98661.13;5015638;28;20467;-72
2021/01/23 05:33:55;;;;;;;27.45;16.15;;;;;;;5.92;89.86;98657.69;4998184;28;20103;-74
2021/01/23 05:36:21;;;;;;;30.42;16.38;;;;;;;5.85;89.40;98635.19;4997748;28;20026;-73
2021/01/23 05:38:48;;;;;;;30.67;17.25;;;;;;;5.98;89.60;98660.78;5015677;28;20497;-73
2021/01/23 05:41:15;;;;;;;26.02;16.48;;;;;;;5.82;89.29;98611.59;4997601;28;20124;-73
2021/01/23 05:43:42;;;;;;;29.20;16.70;;;;;;;6.05;89.31;98655.06;5015785;28;20034;-73
2021/01/23 05:46:11;;;;;;;29.67;16.65;;;;;;;6.01;89.06;98662.38;5015017;28;20049;-72
2021/01/23 05:48:40;;;;;;;27.10;17.30;;;;;;;5.93;89.51;98648.78;5015372;28;20033;-73
2021/01/23 05:51:06;;;;;;;27.08;15.65;;;;;;;5.64;89.52;98611.00;5015145;28;20426;-74
2021/01/23 05:53:32;;;;;;;30.42;16.75;;;;;;;5.91;89.44;98640.09;4998236;28;20092;-73
2021/01/23 05:56:01;;;;;;;31.17;17.45;;;;;;;5.58;90.03;98614.88;5015257;28;20076;-73
2021/01/23 05:58:35;;;;;;;30.15;16.98;;;;;;;5.86;89.74;98626.28;5015436;28;20383;-73
2021/01/23 06:01:13;;;;;;;25.92;15.80;;;;;;;5.81;89.81;98629.25;4997585;28;20467;-75
2021/01/23 06:03:41;;;;;;;29.67;16.27;;;;;;;5.83;89.92;98637.09;5015069;28;20037;-72
2021/01/23 06:06:07;;;;;;;30.70;16.88;;;;;;;5.91;89.65;98638.31;4997374;28;20034;-72
2021/01/23 06:08:48;;;;;;;29.48;16.60;;;;;;;5.84;90.31;98633.47;4981369;28;20395;-71
2021/01/23 06:11:19;;;;;;;32.88;16.45;;;;;;;5.87;90.12;98630.63;4997072;28;20127;-72
2021/01/23 06:13:50;;;;;;;30.92;17.15;;;;;;;5.86;90.24;98628.94;5015094;28;20022;-72
2021/01/23 06:16:33;;;;;;;30.67;17.15;;;;;;;5.66;91.17;98627.59;5014737;28;20375;-72
2021/01/23 06:19:05;;;;;;;31.92;16.98;;;;;;;5.71;90.86;98629.00;5014887;28;20467;-72
2021/01/23 06:21:42;;;;;;;31.80;17.88;;;;;;;5.64;91.61;98646.22;4997508;28;20030;-73
2021/01/23 06:24:09;;;;;;;30.92;17.48;;;;;;;5.43;91.50;98597.38;4996834;28;20038;-74
2021/01/23 06:26:54;;;;;;;32.20;17.65;;;;;;;5.88;90.75;98634.97;5014957;28;20099;-72
2021/01/23 06:29:36;;;;;;;29.20;16.77;;;;;;;5.82;90.88;98638.03;4996453;28;20033;-73
2021/01/23 06:32:19;;;;;;;30.33;16.83;;;;;;;5.79;90.58;98639.09;5014792;28;20459;-74
2021/01/23 06:34:53;;;;;;;32.15;17.30;;;;;;;5.82;90.51;98630.94;4997432;28;20046;-73
2021/01/23 06:37:37;;;;;;;29.23;16.90;;;;;;;5.95;90.61;98638.94;5014083;28;20080;-74
2021/01/23 06:40:10;;;;;;;28.77;17.08;;;;;;;5.97;89.97;98634.38;5014488;28;20467;-73
2021/01/23 06:42:56;;;;;;;30.00;15.90;;;;;;;6.00;89.78;98634.19;5014399;28;20391;-72
2021/01/23 06:45:22;;;;;;;27.33;16.40;;;;;;;5.90;90.33;98635.75;4996062;28;20487;-73
2021/01/23 06:47:51;;;;;;;30.70;17.08;;;;;;;5.93;90.28;98638.19;5014362;28;20026;-71
2021/01/23 06:50:36;;;;;;;29.77;17.85;;;;;;;5.87;90.23;98633.28;5014010;28;20360;-71
2021/01/23 06:53:03;;;;;;;29.67;16.25;;;;;;;5.96;90.16;98653.88;5014348;28;20021;-71
2021/01/23 06:55:39;;;;;;;30.33;16.92;;;;;;;5.96;90.05;98659.16;5014119;28;20029;-70
2021/01/23 06:58:12;;;;;;;30.60;16.52;;;;;;;5.89;90.45;98660.50;4996059;28;20052;-72
2021/01/23 07:00:37;;;;;;;29.77;16.48;;;;;;;5.80;89.55;98606.41;5014338;28;20129;-71
2021/01/23 07:03:08;;;;;;;30.08;17.00;;;;;;;5.90;90.17;98648.97;5014165;28;20462;-71
2021/01/23 07:05:34;;;;;;;28.30;16.08;;;;;;;5.89;90.10;98644.63;4996397;28;20034;-71
2021/01/23 07:07:59;;;;;;;36.20;18.05;;;;;;;5.85;89.96;98629.88;5014187;28;20113;-70
2021/01/23 07:10:25;;;;;;;34.58;17.98;;;;;;;5.77;90.54;98624.25;4996083;28;20084;-71
2021/01/23 07:12:50;;;;;;;35.08;18.73;;;;;;;5.61;91.34;98627.06;4980271;28;20546;-72
2021/01/23 07:15:22;;;;;;;31.98;18.40;;;;;;;5.67;91.61;98648.66;5013845;28;20088;-71
2021/01/23 07:17:49;;;;;;;33.00;17.83;;;;;;;5.71;91.86;98644.88;5013654;28;20537;-71
2021/01/23 07:20:19;;;;;;;39.33;21.15;;;;;;;5.77;91.19;98643.63;5013315;28;20036;-71
2021/01/23 07:22:46;;;;;;;36.10;18.88;;;;;;;5.71;90.87;98633.47;5013903;28;20065;-72
2021/01/23 07:25:15;;;;;;;31.70;18.48;;;;;;;5.85;90.45;98648.41;5013229;28;20113;-70
2021/01/23 07:27:42;;;;;;;30.42;17.10;;;;;;;5.94;90.60;98650.47;5013681;28;20030;-71
2021/01/23 07:30:16;;;;;;;27.95;16.77;;;;;;;6.03;89.75;98636.63;5013414;28;20120;-72
2021/01/23 07:32:43;;;;;;;33.75;17.90;;;;;;;6.00;89.96;98640.34;4995941;28;20084;-69
2021/01/23 07:35:09;;;;;;;28.23;16.65;;;;;;;5.96;90.45;98645.94;5013231;28;20054;-79
2021/01/23 07:37:58;;;;;;;31.42;17.70;;;;;;;6.10;89.92;98643.22;4992566;28;20062;-72
2021/01/23 07:40:38;;;;;;;30.80;16.85;;;;;;;5.98;90.12;98634.31;4993623;28;20113;-69
2021/01/23 07:43:06;;;;;;;27.58;17.17;;;;;;;5.79;90.18;98593.25;4993658;28;20030;-69
2021/01/23 07:45:32;;;;;;;31.70;18.35;;;;;;;6.10;90.49;98637.94;4993652;28;20030;-72
2021/01/23 07:48:00;;;;;;;30.60;17.27;;;;;;;6.08;90.10;98637.19;4992502;28;20399;-73
2021/01/23 07:50:26;;;;;;;32.85;17.30;;;;;;;6.12;89.68;98621.94;4992024;28;20036;-70
2021/01/23 07:52:52;;;;;;;33.80;18.73;;;;;;;6.15;90.02;98622.56;4992446;28;20038;-69
2021/01/23 07:55:17;;;;;;;33.28;18.42;;;;;;;6.22;89.45;98613.25;4992582;28;20038;-70
2021/01/23 07:58:06;;;;;;;30.08;17.95;;;;;;;6.17;90.09;98644.47;4992397;28;20035;-71
2021/01/23 08:00:31;;;;;;;34.80;18.63;;;;;;;6.06;90.51;98646.16;4993442;28;20038;-72
2021/01/23 08:02:58;;;;;;;35.47;18.10;;;;;;;5.91;90.64;98595.13;4992510;28;20206;-70
2021/01/23 08:05:43;;;;;;;37.03;19.10;;;;;;;6.16;90.51;98628.69;4993018;28;20110;-71
2021/01/23 08:08:11;;;;;;;30.05;17.52;;;;;;;6.20;89.96;98612.53;4993392;28;20089;-71
2021/01/23 08:10:37;;;;;;;36.67;19.45;;;;;;;6.21;89.20;98610.72;4992518;28;20041;-69
2021/01/23 08:13:07;;;;;;;36.78;20.17;;;;;;;6.35;89.55;98645.03;4993580;28;20085;-71
2021/01/23 08:15:35;;;;;;;33.63;19.63;;;;;;;6.33;89.58;98631.06;4993202;28;20117;-71
2021/01/23 08:18:15;;;;;;;34.97;19.08;;;;;;;6.43;88.92;98648.00;4993423;28;20395;-70
2021/01/23 08:20:40;;;;;;;33.85;19.00;;;;;;;6.35;89.70;98650.31;4993415;28;20113;-71
2021/01/23 08:23:11;;;;;;;34.38;19.42;;;;;;;6.26;89.93;98635.91;4994232;28;20102;-71
2021/01/23 08:25:48;;;;;;;30.50;18.20;;;;;;;6.06;90.42;98606.44;4995289;28;20125;-72
2021/01/23 08:28:16;;;;;;;35.10;19.52;;;;;;;6.20;90.72;98639.00;4993015;28;20026;-70
2021/01/23 08:30:42;;;;;;;33.95;18.08;;;;;;;6.21;91.03;98647.78;4993130;28;20041;-70
2021/01/23 08:33:09;;;;;;;36.55;19.80;;;;;;;6.08;91.56;98637.19;4993050;28;20403;-71
2021/01/23 08:35:40;;;;;;;32.03;15.98;;;;;;;6.11;92.11;98703.16;4993172;28;20034;-71
2021/01/23 08:38:09;;;;;;;30.17;16.05;;;;;;;5.94;92.77;98721.94;5007260;28;20050;-74
2021/01/23 08:40:34;;;;;;;33.45;16.02;;;;;;;6.02;92.95;98727.59;5012560;28;20036;-74
2021/01/23 08:43:00;;;;;;;27.73;15.95;;;;;;;5.96;93.34;98749.16;4979428;28;20383;-73
2021/01/23 08:45:26;;;;;;;26.23;16.35;;;;;;;6.03;92.82;98731.91;5012381;28;20036;-73
2021/01/23 08:47:51;;;;;;;26.55;14.77;;;;;;;6.16;92.56;98750.47;5012786;28;20549;-74
2021/01/23 08:50:18;;;;;;;29.45;14.70;;;;;;;5.98;92.68;98721.66;4994878;28;20040;-75
2021/01/23 08:52:43;;;;;;;25.75;15.70;;;;;;;6.17;92.24;98718.59;5012931;28;20045;-71
2021/01/23 08:55:09;;;;;;;30.58;15.27;;;;;;;6.27;92.12;98729.44;5012644;28;20034;-72
2021/01/23 08:57:35;;;;;;;30.30;15.95;;;;;;;6.20;91.14;98707.84;5012135;28;20533;-72
2021/01/23 09:00:01;;;;;;;23.90;14.45;;;;;;;6.61;90.20;98733.31;4994939;28;20042;-70
2021/01/23 09:02:27;;;;;;;29.67;14.85;;;;;;;6.40;90.32;98711.78;5012136;28;20037;-72
2021/01/23 09:04:52;;;;;;;27.05;14.73;;;;;;;6.54;90.48;98719.63;5012374;28;20038;-70
2021/01/23 09:07:18;;;;;;;28.83;15.30;;;;;;;6.58;90.51;98720.28;4994655;28;20537;-72
2021/01/23 09:09:48;;;;;;;28.52;14.63;;;;;;;6.60;90.10;98702.50;5012474;28;20025;-71
2021/01/23 09:12:14;;;;;;;25.10;14.07;;;;;;;6.45;90.25;98683.19;5012459;28;20026;-68
2021/01/23 09:14:39;;;;;;;28.02;15.57;;;;;;;6.63;90.27;98707.56;4994558;28;20038;-69
2021/01/23 09:17:05;;;;;;;26.00;15.57;;;;;;;6.62;90.07;98705.88;5012784;28;20041;-70
2021/01/23 09:19:31;;;;;;;28.15;15.18;;;;;;;6.91;89.63;98727.72;4994671;28;20066;-68
2021/01/23 09:21:56;;;;;;;21.38;14.05;;;;;;;6.92;89.29;98726.75;5015311;28;20084;-68
2021/01/23 09:24:23;;;;;;;23.52;14.15;;;;;;;6.97;88.76;98722.00;4981757;28;20040;-71
2021/01/23 09:26:48;;;;;;;28.33;14.88;;;;;;;7.14;88.56;98728.75;4966675;28;20091;-69
2021/01/23 09:29:14;;;;;;;28.15;14.50;;;;;;;7.14;88.13;98712.84;5000426;28;20037;-67
2021/01/23 09:31:39;;;;;;;26.13;14.88;;;;;;;7.26;87.68;98701.41;5012231;28;20042;-71
2021/01/23 09:34:06;;;;;;;26.40;15.07;;;;;;;7.40;87.96;98701.25;4994886;28;20046;-71
2021/01/23 09:36:32;;;;;;;27.77;15.25;;;;;;;7.45;87.79;98693.81;5015361;28;20072;-71
2021/01/23 09:38:57;;;;;;;28.48;15.00;;;;;;;7.40;87.23;98652.66;4998130;28;20049;-71
2021/01/23 09:41:23;;;;;;;26.58;14.55;;;;;;;7.69;86.55;98679.72;5012796;28;20046;-72
2021/01/23 09:43:49;;;;;;;24.48;14.18;;;;;;;7.80;85.49;98677.09;5007997;28;20046;-75
2021/01/23 09:46:14;;;;;;;22.33;13.93;;;;;;;7.95;86.10;98669.84;4961851;28;20739;-72
2021/01/23 09:48:40;;;;;;;24.30;14.85;;;;;;;7.80;86.63;98632.00;4978135;28;20049;-73
2021/01/23 09:51:05;;;;;;;23.05;13.25;;;;;;;8.13;85.35;98665.81;4995132;28;20113;-72
2021/01/23 09:53:31;;;;;;;22.77;13.57;;;;;;;8.11;84.42;98635.03;4995654;28;20042;-73
2021/01/23 09:55:57;;;;;;;21.77;12.57;;;;;;;8.12;83.12;98611.00;4977924;28;20323;-71
2021/01/23 09:58:22;;;;;;;22.25;12.95;;;;;;;8.36;82.95;98621.56;4978164;28;20037;-72
2021/01/23 10:00:49;;;;;;;23.73;12.77;;;;;;;8.54;82.53;98633.44;4989578;28;20394;-72
2021/01/23 10:03:15;;;;;;;23.05;12.27;;;;;;;8.59;81.78;98641.09;4997663;28;20038;-72
2021/01/23 10:05:40;;;;;;;24.30;12.45;;;;;;;8.45;81.12;98606.75;4980823;28;20033;-71
2021/01/23 10:08:07;;;;;;;22.58;11.57;;;;;;;8.66;80.94;98630.81;5013610;28;20410;-75
2021/01/23 10:10:32;;;;;;;24.83;12.80;;;;;;;8.55;81.27;98621.84;4996810;28;20037;-72
2021/01/23 10:12:58;;;;;;;22.15;13.15;;;;;;;8.79;81.16;98632.41;4965713;28;20069;-72
2021/01/23 10:15:24;;;;;;;25.67;12.63;;;;;;;8.74;80.85;98623.06;4977688;28;20132;-75
2021/01/23 10:17:50;;;;;;;21.88;12.07;;;;;;;8.91;80.43;98630.56;4961809;28;20509;-71
2021/01/23 10:20:15;;;;;;;23.15;12.27;;;;;;;9.10;80.19;98630.81;4977388;28;20104;-73
2021/01/23 10:22:42;;;;;;;19.52;10.77;;;;;;;9.16;78.62;98614.34;4977839;28;20109;-71
2021/01/23 10:25:07;;;;;;;20.90;10.95;;;;;;;9.38;79.31;98628.59;4945629;28;20081;-71
2021/01/23 10:27:34;;;;;;;17.90;11.05;;;;;;;9.22;77.77;98598.88;4945450;28;20042;-70
2021/01/23 10:29:59;;;;;;;18.42;10.55;;;;;;;9.30;77.06;98596.44;4960729;28;20498;-70
2021/01/23 10:32:25;;;;;;;19.40;10.52;;;;;;;9.57;78.03;98634.13;4960589;28;20040;-72
2021/01/23 10:34:50;;;;;;;19.38;10.38;;;;;;;9.49;77.03;98599.28;4977535;28;20039;-70
2021/01/23 10:37:16;;;;;;;17.00;8.10;;;;;;;9.69;74.77;98609.16;4979359;28;20535;-73
2021/01/23 10:39:41;;;;;;;13.38;6.35;;;;;;;9.83;74.56;98628.44;4977373;28;20084;-73
2021/01/23 10:42:21;;;;;;;13.27;6.65;;;;;;;10.02;74.42;98642.78;5105766;27;20330;-71
2021/01/23 10:44:46;;;;;;;11.82;6.00;;;;;;;10.10;72.65;98641.28;5072983;28;20043;-72
2021/01/23 10:47:12;;;;;;;14.15;5.90;;;;;;;10.20;72.71;98647.53;5090925;28;20532;-71
2021/01/23 10:49:38;;;;;;;11.13;4.88;;;;;;;10.18;71.81;98636.19;5072856;28;20036;-70
2021/01/23 10:52:04;;;;;;;11.02;4.70;;;;;;;10.23;71.95;98641.97;5072700;28;20047;-72
2021/01/23 10:54:34;;;;;;;6.95;4.22;;;;;;;10.17;71.38;98610.50;5090965;28;20469;-69
2021/01/23 10:57:02;;;;;;;8.40;4.35;;;;;;;10.45;71.07;98633.03;5090203;28;20036;-70
2021/01/23 10:59:28;;;;;;;10.40;4.40;;;;;;;10.46;70.38;98637.38;5090909;28;20036;-69
2021/01/23 11:01:54;;;;;;;9.90;4.53;;;;;;;10.49;71.60;98629.97;5090298;28;20033;-70
2021/01/23 11:04:19;;;;;;;9.70;4.53;;;;;;;10.41;70.70;98604.94;5072520;28;20086;-69
2021/01/23 11:06:45;;;;;;;8.05;3.97;;;;;;;10.24;69.42;98553.94;5072231;28;20056;-71
2021/01/23 11:09:10;;;;;;;8.57;4.65;;;;;;;10.49;70.33;98595.31;5090370;28;20028;-70
2021/01/23 11:11:36;;;;;;;8.55;4.10;;;;;;;10.61;70.40;98598.72;5090140;28;20047;-71
2021/01/23 11:14:02;;;;;;;7.53;4.05;;;;;;;10.64;70.89;98586.97;5072266;28;20067;-69
2021/01/23 11:16:27;;;;;;;10.55;4.38;;;;;;;10.64;68.58;98561.16;5090385;28;20492;-70
2021/01/23 11:18:54;;;;;;;7.20;3.78;;;;;;;10.92;68.76;98586.25;5066231;28;20097;-71
2021/01/23 11:21:19;;;;;;;12.27;3.90;;;;;;;10.81;69.47;98581.88;5070197;28;20024;-73
2021/01/23 11:23:45;;;;;;;9.00;3.95;;;;;;;10.70;70.03;98575.75;5089516;28;20031;-72
2021/01/23 11:26:10;;;;;;;8.25;3.47;;;;;;;10.62;70.70;98567.59;5054373;28;20032;-72
2021/01/23 11:28:36;;;;;;;8.68;4.05;;;;;;;10.55;70.38;98556.63;5054674;28;20040;-74
2021/01/23 11:31:02;;;;;;;9.52;3.90;;;;;;;10.78;69.49;98558.13;5071333;28;20366;-71